Data for 12/30/2007

Time Sea-Level Adjusted Pressure Absolute Pressure Temperature Relative Humidity Dew Point   
(mb) (inHg) (mb) (inHg) (C) (F) (%) (C) (F)
00:05 1007 29.74 836 24.69 -7.1 19.1 48 -16.4 2.5
00:10 1007 29.74 836 24.69 -6.7 20 46 -16.5 2.3
00:15 1007 29.74 836 24.69 -6.5 20.2 51 -15.1 4.9
00:20 1007 29.74 836 24.69 -6.6 20.2 47 -16.2 2.9
00:25 1007 29.74 836 24.69 -6.4 20.5 47 -16 3.2
00:30 1007 29.74 836 24.69 -6.2 20.8 46 -16 3.2
00:35 1007 29.74 836 24.69 -6.2 20.9 47 -15.8 3.5
00:40 1007 29.74 836 24.69 -6.1 21 42 -16.9 1.5
00:45 1007 29.74 836 24.69 -5.9 21.4 43 -16.5 2.4
00:50 1007 29.74 836 24.69 -5.8 21.5 40 -17.2 1
00:55 1007 29.74 836 24.69 -5.6 21.9 42 -16.7 1.9
01:00 1007 29.74 836 24.69 -5.5 22.1 40 -17.3 0.9
01:05 1007 29.74 836 24.69 -5.3 22.4 37 -17.7 0.1
01:10 1007 29.74 836 24.69 -5.1 22.8 40 -16.7 1.9
01:15 1006 29.71 836 24.69 -5.2 22.6 39 -17.3 0.8
01:20 1006 29.71 836 24.69 -5.2 22.6 40 -16.9 1.5
01:25 1006 29.71 836 24.69 -5.4 22.3 43 -16 3.2
01:30 1006 29.71 835 24.66 -5.4 22.3 38 -17.5 0.5
01:35 1006 29.71 835 24.66 -5.3 22.4 40 -17 1.4
01:40 1006 29.71 835 24.66 -5.6 21.9 43 -16.3 2.7
01:45 1006 29.71 835 24.66 -5.7 21.7 40 -17.4 0.8
01:50 1006 29.71 835 24.66 -5.5 22.1 46 -15.5 4.1
01:55 1006 29.71 835 24.66 -5.7 21.7 47 -15.4 4.2
02:00 1006 29.71 835 24.66 -5.8 21.5 46 -15.6 3.9
02:05 1006 29.71 835 24.66 -6.1 21 48 -15.5 4.1
02:10 1006 29.71 835 24.66 -6.3 20.7 51 -14.9 5.1
02:15 1006 29.71 835 24.66 -6.4 20.5 48 -15.6 3.9
02:20 1006 29.71 835 24.66 -6.4 20.5 49 -15.4 4.4
02:25 1006 29.71 835 24.66 -6.4 20.4 49 -15.4 4.3
02:30 1006 29.71 835 24.66 -6.5 20.4 49 -15.6 3.8
02:35 1006 29.71 835 24.66 -6.4 20.5 49 -15.5 4
02:40 1006 29.71 835 24.66 -6.3 20.7 48 -15.6 3.8
02:45 1006 29.71 835 24.66 -6 21.1 46 -15.9 3.4
02:50 1006 29.71 835 24.66 -5.8 21.5 45 -16 3.3
02:55 1006 29.71 835 24.66 -5.6 21.9 45 -15.8 3.6
03:00 1006 29.71 835 24.66 -5.6 22 45 -15.6 3.9
03:05 1006 29.71 835 24.66 -5.5 22.2 44 -15.8 3.6
03:10 1006 29.71 835 24.66 -5.3 22.4 46 -15.4 4.4
03:15 1006 29.71 835 24.66 -5.3 22.4 45 -15.5 4
03:20 1006 29.71 835 24.66 -5.2 22.7 47 -14.9 5.1
03:25 1006 29.71 835 24.66 -5.1 22.8 45 -15.2 4.6
03:30 1006 29.71 835 24.66 -4.7 23.5 45 -14.8 5.3
03:35 1006 29.71 835 24.66 -4.3 24.3 44 -14.9 5.2
03:40 1006 29.71 835 24.66 -3.8 25.2 44 -14.3 6.3
03:45 1006 29.71 835 24.66 -4 24.8 47 -13.7 7.4
03:50 1006 29.71 835 24.66 -3.9 25 45 -14.3 6.3
03:55 1006 29.71 835 24.66 -3.6 25.5 46 -13.8 7.2
04:00 1006 29.71 835 24.66 -3.7 25.4 45 -13.8 7.1
04:05 1006 29.71 835 24.66 -3.8 25.2 47 -13.6 7.5
04:10 1006 29.71 835 24.66 -4.4 24.1 51 -13.2 8.3
04:15 1006 29.71 835 24.66 -4.7 23.6 51 -13.3 8
04:20 1005 29.68 835 24.66 -4.7 23.5 51 -13.4 7.8
04:25 1005 29.68 835 24.66 -4.7 23.5 51 -13.3 8
04:30 1005 29.68 835 24.66 -4.6 23.7 52 -13.1 8.4
04:35 1005 29.68 835 24.66 -4.6 23.7 51 -13.3 8.1
04:40 1005 29.68 834 24.63 -4.7 23.6 53 -13 8.7
04:45 1005 29.68 834 24.63 -4.6 23.7 53 -12.7 9.1
04:50 1005 29.68 834 24.63 -4.3 24.3 54 -12.4 9.8
04:55 1005 29.68 834 24.63 -3.8 25.2 52 -12.2 10
05:00 1005 29.68 834 24.63 -3.7 25.3 54 -11.8 10.7
05:05 1005 29.68 834 24.63 -3.9 25 52 -12.4 9.7
05:10 1005 29.68 834 24.63 -4.8 23.4 54 -12.7 9.1
05:15 1005 29.68 834 24.63 -4.8 23.3 57 -12.1 10.3
05:20 1005 29.68 834 24.63 -4.2 24.5 54 -12.2 10
05:25 1005 29.68 834 24.63 -4.4 24.1 56 -11.9 10.6
05:30 1005 29.68 834 24.63 -4.6 23.8 58 -11.7 11
05:35 1005 29.68 834 24.63 -4.4 24 57 -11.8 10.8
05:40 1005 29.68 834 24.63 -4.3 24.2 57 -11.6 11.1
05:45 1005 29.68 834 24.63 -4.5 24 58 -11.4 11.4
05:50 1005 29.68 834 24.63 -4.6 23.8 60 -11.3 11.7
05:55 1005 29.68 834 24.63 -4.4 24 60 -11.1 11.9
06:00 1005 29.68 834 24.63 -4.1 24.6 58 -11.3 11.7
06:05 1005 29.68 834 24.63 -3.8 25.2 57 -11.1 12
06:10 1005 29.68 834 24.63 -3.6 25.6 55 -11.3 11.7
06:15 1005 29.68 834 24.63 -3.3 26.1 55 -11.2 11.9
06:20 1005 29.68 834 24.63 -3.3 26 54 -11.4 11.5
06:25 1005 29.68 834 24.63 -3.2 26.3 53 -11.4 11.5
06:30 1005 29.68 835 24.66 -3.1 26.3 55 -11.1 12.1
06:35 1005 29.68 835 24.66 -3.4 25.9 54 -11.3 11.6
06:40 1006 29.71 835 24.66 -3.3 26 53 -11.7 11
06:45 1006 29.71 835 24.66 -3.1 26.5 52 -11.6 11.2
06:50 1006 29.71 835 24.66 -2.9 26.7 52 -11.4 11.5
06:55 1006 29.71 835 24.66 -2.8 26.9 51 -11.7 11
07:00 1006 29.71 835 24.66 -2.7 27.1 50 -11.7 10.9
07:05 1006 29.71 835 24.66 -2.7 27.1 52 -11.3 11.7
07:10 1006 29.71 835 24.66 -2.9 26.8 53 -11.3 11.7
07:15 1006 29.71 835 24.66 -3.1 26.5 55 -10.9 12.3
07:20 1006 29.71 836 24.69 -3.2 26.2 56 -10.8 12.5
07:25 1006 29.71 836 24.69 -3.5 25.7 58 -10.6 13
07:30 1006 29.71 836 24.69 -4 24.8 60 -10.7 12.7
07:35 1006 29.71 836 24.69 -4.3 24.3 61 -10.7 12.7
07:40 1006 29.71 836 24.69 -4.4 24 61 -10.8 12.6
07:45 1006 29.71 836 24.69 -4.5 24 59 -11.4 11.6
07:50 1006 29.71 836 24.69 -4.1 24.5 49 -13.2 8.2
07:55 1006 29.71 836 24.69 -3.6 25.6 44 -14.1 6.7
08:00 1007 29.74 836 24.69 -3.4 25.8 46 -13.6 7.5
08:05 1007 29.74 836 24.69 -3.6 25.5 45 -13.9 7
08:10 1007 29.74 836 24.69 -3.6 25.5 42 -14.7 5.6
08:15 1007 29.74 836 24.69 -3.6 25.6 42 -14.6 5.7
08:20 1007 29.74 836 24.69 -3.7 25.3 43 -14.6 5.7
08:25 1007 29.74 836 24.69 -3.9 25 44 -14.5 5.9
08:30 1007 29.74 836 24.69 -4.1 24.7 44 -14.5 6
08:35 1007 29.74 836 24.69 -4.2 24.4 44 -14.9 5.2
08:40 1007 29.74 837 24.72 -4.3 24.2 44 -14.8 5.3
08:45 1007 29.74 837 24.72 -4.5 24 44 -14.8 5.3
08:50 1008 29.77 837 24.72 -4.6 23.6 46 -14.6 5.7
08:55 1008 29.77 837 24.72 -4.8 23.4 44 -15.3 4.4
09:00 1008 29.77 837 24.72 -4.8 23.3 42 -16 3.2
09:05 1008 29.77 837 24.72 -4.7 23.6 38 -16.9 1.7
09:10 1008 29.77 837 24.72 -4.4 24.1 37 -17.1 1.2
09:15 1008 29.77 837 24.72 -4.2 24.5 37 -16.8 1.7
09:20 1008 29.77 837 24.72 -4.3 24.3 39 -16.3 2.7
09:25 1008 29.77 837 24.72 -4.4 24.1 40 -16.1 2.9
09:30 1008 29.77 837 24.72 -4.3 24.2 39 -16.3 2.7
09:35 1008 29.77 837 24.72 -4.3 24.2 38 -16.5 2.3
09:40 1008 29.77 837 24.72 -4.3 24.2 38 -16.8 1.7
09:45 1008 29.77 837 24.72 -4.3 24.2 38 -16.7 1.9
09:50 1008 29.77 837 24.72 -4.3 24.3 37 -17 1.3
09:55 1008 29.77 837 24.72 -4.3 24.2 37 -16.8 1.7
10:00 1008 29.77 837 24.72 -4.3 24.3 40 -16 3.2
10:05 1008 29.77 837 24.72 -4.3 24.3 41 -15.7 3.8
10:10 1008 29.77 837 24.72 -4.3 24.3 42 -15.4 4.3
10:15 1008 29.77 837 24.72 -4.4 24 44 -14.8 5.3
10:20 1008 29.77 838 24.75 -4.5 23.8 42 -15.6 4
10:25 1008 29.77 838 24.75 -4.5 23.9 42 -15.6 3.8
10:30 1008 29.77 838 24.75 -4.3 24.2 43 -15 5
10:35 1008 29.77 838 24.75 -3.9 25 44 -14.5 6
10:40 1009 29.8 838 24.75 -3.7 25.4 46 -13.8 7.2
10:45 1009 29.8 838 24.75 -3.7 25.4 44 -14.3 6.2
10:50 1009 29.8 838 24.75 -3.6 25.5 44 -14.2 6.4
10:55 1009 29.8 838 24.75 -3.6 25.6 44 -14.1 6.7
11:00 1009 29.8 838 24.75 -3.6 25.6 46 -13.7 7.4
11:05 1009 29.8 838 24.75 -3.4 25.8 45 -13.8 7.2
11:10 1009 29.8 838 24.75 -3.6 25.6 48 -13.1 8.4
11:15 1009 29.8 838 24.75 -3.5 25.7 48 -13.1 8.4
11:20 1009 29.8 838 24.75 -3.4 25.9 49 -12.6 9.3
11:25 1009 29.8 838 24.75 -3.4 25.8 49 -12.6 9.4
11:30 1009 29.8 838 24.75 -3.4 25.9 47 -13 8.6
11:35 1009 29.8 838 24.75 -3.2 26.3 47 -13.1 8.4
11:40 1009 29.8 838 24.75 -3.1 26.3 47 -12.8 8.9
11:45 1009 29.8 838 24.75 -3.1 26.4 46 -13.2 8.3
11:50 1009 29.8 838 24.75 -3.2 26.2 46 -13.2 8.2
11:55 1009 29.8 838 24.75 -3.2 26.2 48 -12.8 9
12:00 1009 29.8 838 24.75 -3.2 26.2 48 -12.6 9.3
12:05 1009 29.8 838 24.75 -3.1 26.4 48 -12.7 9.2
12:10 1009 29.8 838 24.75 -2.9 26.7 46 -13.1 8.4
12:15 1009 29.8 838 24.75 -2.9 26.8 45 -13.3 8.1
12:20 1009 29.8 838 24.75 -2.9 26.8 46 -12.9 8.7
12:25 1009 29.8 838 24.75 -2.8 26.9 47 -12.8 9
12:30 1009 29.8 838 24.75 -2.6 27.3 45 -12.9 8.8
12:35 1009 29.8 838 24.75 -1.8 28.8 41 -13.3 8
12:40 1009 29.8 838 24.75 -1.7 28.9 40 -13.8 7.2
12:45 1009 29.8 838 24.75 -1.6 29.1 39 -13.8 7.1
12:50 1009 29.8 838 24.75 -1.6 29.1 39 -13.9 6.9
12:55 1009 29.8 838 24.75 -1.8 28.8 39 -14.1 6.5
13:00 1009 29.8 838 24.75 -1.8 28.8 38 -14.5 6
13:05 1009 29.8 838 24.75 -1.6 29.1 37 -14.7 5.6
13:10 1009 29.8 838 24.75 -1.8 28.7 38 -14.5 5.9
13:15 1009 29.8 838 24.75 -2 28.4 39 -14 6.7
13:20 1009 29.8 838 24.75 -2.7 27.1 40 -14.7 5.5
13:25 1008 29.77 838 24.75 -3.1 26.5 38 -15.3 4.4
13:30 1009 29.8 838 24.75 -3.1 26.4 38 -15.6 4
13:35 1009 29.8 838 24.75 -2.5 27.5 37 -15.2 4.7
13:40 1009 29.8 838 24.75 -1.9 28.5 37 -14.7 5.6
13:45 1009 29.8 838 24.75 -2 28.4 36 -15.3 4.5
13:50 1009 29.8 838 24.75 -1.5 29.3 36 -14.9 5.2
13:55 1009 29.8 838 24.75 -1.7 28.9 39 -14 6.9
14:00 1009 29.8 838 24.75 -2.2 28 42 -13.5 7.7
14:05 1009 29.8 838 24.75 -2.5 27.5 40 -14.4 6.1
14:10 1009 29.8 838 24.75 -2.7 27.2 40 -14.7 5.6
14:15 1009 29.8 838 24.75 -2.5 27.5 41 -13.9 6.9
14:20 1009 29.8 838 24.75 -2.4 27.7 43 -13.4 7.8
14:25 1009 29.8 838 24.75 -2.1 28.3 43 -13.2 8.3
14:30 1009 29.8 838 24.75 -2.2 28 42 -13.6 7.5
14:35 1009 29.8 838 24.75 -2.6 27.3 42 -13.8 7.2
14:40 1009 29.8 838 24.75 -2.8 26.9 41 -14.5 5.9
14:45 1009 29.8 838 24.75 -2.9 26.9 42 -14.2 6.4
14:50 1009 29.8 838 24.75 -2.9 26.9 43 -13.8 7.2
14:55 1009 29.8 838 24.75 -2.8 26.9 44 -13.5 7.7
15:00 1009 29.8 838 24.75 -2.8 26.9 41 -14.2 6.4
15:05 1009 29.8 838 24.75 -2.9 26.9 42 -14.2 6.4
15:10 1009 29.8 838 24.75 -2.9 26.7 42 -14.3 6.3
15:15 1009 29.8 839 24.78 -3 26.7 41 -14.4 6.1
15:20 1009 29.8 839 24.78 -3 26.7 42 -14.1 6.7
15:25 1010 29.83 839 24.78 -3 26.6 44 -13.6 7.5
15:30 1010 29.83 839 24.78 -3.1 26.5 44 -13.7 7.3
15:35 1010 29.83 839 24.78 -3.1 26.5 44 -13.6 7.5
15:40 1010 29.83 839 24.78 -3.1 26.4 44 -13.7 7.4
15:45 1010 29.83 839 24.78 -3.1 26.4 45 -13.4 7.9
15:50 1010 29.83 839 24.78 -3.2 26.2 44 -14 6.9
15:55 1010 29.83 839 24.78 -3.3 26.1 43 -14 6.7
16:00 1010 29.83 839 24.78 -3.4 25.9 45 -13.7 7.3
16:05 1010 29.83 839 24.78 -3.4 25.8 44 -13.9 6.9
16:10 1010 29.83 840 24.81 -3.5 25.7 44 -14 6.9
16:15 1010 29.83 840 24.81 -3.6 25.6 45 -13.9 7
16:20 1011 29.85 840 24.81 -3.7 25.4 46 -13.7 7.3
16:25 1011 29.85 840 24.81 -3.7 25.4 47 -13.5 7.6
16:30 1011 29.85 840 24.81 -3.7 25.3 46 -13.8 7.2
16:35 1011 29.85 840 24.81 -3.7 25.3 46 -13.7 7.3
16:40 1011 29.85 840 24.81 -3.7 25.3 46 -13.7 7.4
16:45 1011 29.85 840 24.81 -3.7 25.3 48 -13.3 8
16:50 1011 29.85 840 24.81 -3.8 25.2 49 -13.1 8.4
16:55 1011 29.85 840 24.81 -3.8 25.2 49 -12.9 8.7
17:00 1011 29.85 840 24.81 -3.8 25.1 49 -13 8.6
17:05 1011 29.85 840 24.81 -3.8 25.1 50 -12.7 9.1
17:10 1011 29.85 841 24.83 -3.8 25.1 49 -13 8.6
17:15 1011 29.85 841 24.83 -3.9 24.9 50 -12.8 8.9
17:20 1011 29.85 841 24.83 -4 24.8 49 -13.3 8
17:25 1011 29.85 841 24.83 -4 24.7 49 -13.3 8.1
17:30 1011 29.85 841 24.83 -4 24.7 50 -13.1 8.4
17:35 1011 29.85 841 24.83 -4.1 24.7 50 -13.1 8.4
17:40 1012 29.88 841 24.83 -4.1 24.5 48 -13.7 7.4
17:45 1012 29.88 841 24.83 -4.1 24.6 47 -13.9 7
17:50 1012 29.88 841 24.83 -4.1 24.6 45 -14.3 6.2
17:55 1012 29.88 841 24.83 -4.1 24.5 46 -14.1 6.5
18:00 1012 29.88 841 24.83 -4.2 24.4 47 -13.9 7
18:05 1012 29.88 841 24.83 -4.2 24.4 46 -14.3 6.3
18:10 1012 29.88 841 24.83 -4.3 24.3 47 -14 6.8
18:15 1012 29.88 841 24.83 -4.4 24.2 47 -14.1 6.6
18:20 1012 29.88 841 24.83 -4.5 24 47 -14.1 6.6
18:25 1012 29.88 841 24.83 -4.5 23.9 47 -14.2 6.5
18:30 1012 29.88 841 24.83 -4.5 23.9 46 -14.4 6.1
18:35 1012 29.88 841 24.83 -4.5 23.9 46 -14.5 5.9
18:40 1012 29.88 842 24.86 -4.5 23.9 47 -14.1 6.6
18:45 1012 29.88 842 24.86 -4.5 23.9 47 -14.2 6.5
18:50 1013 29.91 842 24.86 -4.5 23.8 48 -14 6.7
18:55 1013 29.91 842 24.86 -4.6 23.8 46 -14.5 6
19:00 1013 29.91 842 24.86 -4.6 23.8 47 -14.3 6.2
19:05 1013 29.91 842 24.86 -4.5 23.9 46 -14.4 6.1
19:10 1013 29.91 842 24.86 -4.6 23.8 46 -14.5 6
19:15 1013 29.91 842 24.86 -4.6 23.7 46 -14.6 5.7
19:20 1013 29.91 842 24.86 -4.6 23.7 45 -14.8 5.4
19:25 1013 29.91 842 24.86 -4.6 23.8 46 -14.5 5.8
19:30 1013 29.91 842 24.86 -4.5 23.8 46 -14.5 5.9
19:35 1013 29.91 842 24.86 -4.6 23.8 47 -14.2 6.4
19:40 1013 29.91 842 24.86 -4.6 23.8 48 -14 6.7
19:45 1013 29.91 842 24.86 -4.6 23.7 48 -14 6.9
19:50 1013 29.91 842 24.86 -4.7 23.6 49 -13.9 6.9
19:55 1013 29.91 842 24.86 -4.6 23.7 48 -13.9 6.9
20:00 1013 29.91 842 24.86 -4.6 23.7 49 -13.9 7
20:05 1013 29.91 843 24.89 -4.6 23.7 48 -14 6.7
20:10 1013 29.91 843 24.89 -4.6 23.7 49 -13.6 7.4
20:15 1013 29.91 843 24.89 -4.6 23.7 50 -13.5 7.6
20:20 1013 29.91 843 24.89 -4.7 23.6 49 -13.8 7.2
20:25 1014 29.94 843 24.89 -4.6 23.7 48 -13.9 6.9
20:30 1014 29.94 843 24.89 -4.5 23.8 48 -14.1 6.7
20:35 1014 29.94 843 24.89 -4.5 23.8 48 -14.1 6.7
20:40 1014 29.94 843 24.89 -4.6 23.8 48 -14 6.8
20:45 1014 29.94 843 24.89 -4.6 23.7 49 -13.8 7.1
20:50 1014 29.94 843 24.89 -4.7 23.6 48 -14 6.7
20:55 1014 29.94 843 24.89 -4.6 23.7 49 -13.8 7.1
21:00 1014 29.94 843 24.89 -4.7 23.6 49 -13.9 7
21:05 1014 29.94 843 24.89 -4.7 23.5 50 -13.7 7.4
21:10 1014 29.94 843 24.89 -4.7 23.5 50 -13.7 7.3
21:15 1014 29.94 843 24.89 -4.7 23.5 49 -14 6.9
21:20 1014 29.94 843 24.89 -4.8 23.3 50 -13.8 7.2
21:25 1014 29.94 843 24.89 -4.9 23.3 51 -13.6 7.5
21:30 1014 29.94 843 24.89 -4.9 23.2 50 -13.8 7.2
21:35 1014 29.94 843 24.89 -4.9 23.2 50 -13.8 7.2
21:40 1014 29.94 843 24.89 -5 23.1 52 -13.4 7.8
21:45 1014 29.94 843 24.89 -5 22.9 50 -13.9 6.9
21:50 1014 29.94 844 24.92 -5 23 50 -13.9 7
21:55 1014 29.94 844 24.92 -5.1 22.9 51 -13.6 7.4
22:00 1014 29.94 844 24.92 -5 22.9 51 -13.8 7.2
22:05 1014 29.94 844 24.92 -5.1 22.9 51 -13.8 7.1
22:10 1015 29.97 844 24.92 -5.2 22.7 52 -13.6 7.5
22:15 1015 29.97 844 24.92 -5.3 22.4 51 -14 6.9
22:20 1015 29.97 844 24.92 -5.3 22.4 50 -14.1 6.6
22:25 1015 29.97 844 24.92 -5.3 22.5 49 -14.5 5.8
22:30 1015 29.97 844 24.92 -5.2 22.6 49 -14.3 6.3
22:35 1015 29.97 844 24.92 -5.2 22.6 50 -14.1 6.6
22:40 1015 29.97 844 24.92 -5.2 22.6 51 -13.9 6.9
22:45 1015 29.97 844 24.92 -5.2 22.7 50 -14.1 6.7
22:50 1015 29.97 844 24.92 -5.1 22.7 50 -14.1 6.6
22:55 1015 29.97 844 24.92 -5.1 22.9 50 -14 6.7
23:00 1015 29.97 844 24.92 -5 23 50 -14 6.7
23:05 1015 29.97 844 24.92 -5 23.1 50 -13.9 7
23:10 1015 29.97 844 24.92 -5 23.1 49 -14 6.7
23:15 1015 29.97 844 24.92 -5 23.1 50 -13.8 7.1
23:20 1015 29.97 844 24.92 -5 23 50 -14 6.8
23:25 1015 29.97 844 24.92 -5.1 22.8 50 -13.9 6.9
23:30 1015 29.97 844 24.92 -5.1 22.9 49 -14.2 6.5
23:35 1015 29.97 844 24.92 -5 23 49 -14.2 6.4
23:40 1015 29.97 844 24.92 -4.9 23.1 48 -14.4 6.1
23:45 1015 29.97 844 24.92 -4.8 23.3 48 -14.1 6.5
23:50 1015 29.97 844 24.92 -4.7 23.5 48 -14.2 6.5
23:55 1015 29.97 844 24.92 -4.7 23.5 49 -13.9 7
24:00 1015 29.97 844 24.92 -4.8 23.5 48 -14 6.7